Time;durP1;ratioP1;P1;durP2;ratioP2;P2;SDS_P1;SDS_P2;PMS_P1;PMS_P2;Temp;Humidity;BMP_temperature;BMP_pressure;BME280_temperature;BME280_humidity;BME280_pressure;Samples;Min_cycle;Max_cycle;Signal;HPM_P1;HPM_P2
2024/02/22 00:00:26;;;;;;;24.63;12.50;;;6.30;99.90;;;;;;5034107;28;20200;-82
2024/02/22 00:03:14;;;;;;;27.23;12.87;;;6.30;99.90;;;;;;5033439;28;20189;-82
2024/02/22 00:06:01;;;;;;;31.87;13.80;;;6.30;99.90;;;;;;5032286;28;20282;-80
2024/02/22 00:08:49;;;;;;;31.33;12.73;;;6.40;99.90;;;;;;5033470;28;20202;-81
2024/02/22 00:11:36;;;;;;;25.57;12.77;;;6.40;99.90;;;;;;5032958;28;20699;-82
2024/02/22 00:14:24;;;;;;;28.00;12.30;;;6.40;99.90;;;;;;5032610;28;20206;-81
2024/02/22 00:17:12;;;;;;;28.33;13.13;;;6.40;99.90;;;;;;5032340;28;20284;-81
2024/02/22 00:20:01;;;;;;;26.13;12.43;;;6.40;99.90;;;;;;5032579;28;20383;-81
2024/02/22 00:22:48;;;;;;;29.10;11.90;;;6.40;99.90;;;;;;5033458;28;20235;-80
2024/02/22 00:25:36;;;;;;;33.23;12.40;;;6.40;99.90;;;;;;5032941;28;20199;-80
2024/02/22 00:28:24;;;;;;;24.60;12.03;;;6.40;99.90;;;;;;5032303;28;20224;-81
2024/02/22 00:31:12;;;;;;;27.03;11.77;;;6.40;99.90;;;;;;5032187;28;20673;-81
2024/02/22 00:33:59;;;;;;;25.63;11.80;;;6.40;99.90;;;;;;5032296;28;20200;-82
2024/02/22 00:36:56;;;;;;;26.60;12.57;;;6.40;99.90;;;;;;5032258;28;20205;-82
2024/02/22 00:39:46;;;;;;;29.50;12.60;;;6.50;99.90;;;;;;5032213;28;20205;-82
2024/02/22 00:42:33;;;;;;;27.87;12.17;;;6.40;99.90;;;;;;5032106;28;20260;-83
2024/02/22 00:45:21;;;;;;;26.00;12.40;;;6.40;99.90;;;;;;5032121;28;20224;-80
2024/02/22 00:48:08;;;;;;;24.40;11.80;;;6.40;99.90;;;;;;5031978;28;20223;-82
2024/02/22 00:50:56;;;;;;;26.37;11.97;;;6.30;99.90;;;;;;5017841;28;20561;-82
2024/02/22 00:53:44;;;;;;;22.77;11.47;;;6.40;99.90;;;;;;5019418;28;20198;-82
2024/02/22 00:56:31;;;;;;;24.77;11.83;;;6.40;99.90;;;;;;5032435;28;20206;-82
2024/02/22 00:59:19;;;;;;;25.30;12.17;;;6.50;99.90;;;;;;5016612;28;20457;-83
2024/02/22 01:02:07;;;;;;;27.90;12.33;;;6.50;99.90;;;;;;5016868;28;20202;-82
2024/02/22 01:04:54;;;;;;;22.43;11.23;;;6.50;99.90;;;;;;5033354;28;20205;-83
2024/02/22 01:07:42;;;;;;;23.17;11.47;;;6.60;99.90;;;;;;5032134;28;20260;-82
2024/02/22 01:10:30;;;;;;;27.07;12.40;;;6.60;99.90;;;;;;5032208;28;20206;-82
2024/02/22 01:13:17;;;;;;;22.10;11.57;;;6.60;99.90;;;;;;5031717;28;20216;-82
2024/02/22 01:16:05;;;;;;;26.83;11.50;;;6.60;99.90;;;;;;5016922;28;20676;-82
2024/02/22 01:18:53;;;;;;;25.43;11.63;;;6.50;99.90;;;;;;5030884;28;20232;-82
2024/02/22 01:21:41;;;;;;;27.97;11.67;;;6.60;99.90;;;;;;5030755;28;20195;-82
2024/02/22 01:24:28;;;;;;;25.03;11.83;;;6.60;99.90;;;;;;5031516;28;20280;-82
2024/02/22 01:27:16;;;;;;;23.00;11.57;;;6.50;99.90;;;;;;5031793;28;20584;-82
2024/02/22 01:30:04;;;;;;;24.07;11.30;;;6.50;99.90;;;;;;5031923;28;20656;-82
2024/02/22 01:32:52;;;;;;;27.40;11.77;;;6.60;99.90;;;;;;5031820;28;20279;-82
2024/02/22 01:35:39;;;;;;;24.17;10.77;;;6.60;99.90;;;;;;5017260;28;20196;-82
2024/02/22 01:38:27;;;;;;;24.47;11.17;;;6.50;99.90;;;;;;5032396;28;20196;-83
2024/02/22 01:41:15;;;;;;;24.60;11.30;;;6.50;99.90;;;;;;5030747;28;20325;-82
2024/02/22 01:44:03;;;;;;;23.93;11.27;;;6.50;99.90;;;;;;5030499;28;20191;-82
2024/02/22 01:46:50;;;;;;;24.83;11.37;;;6.60;99.90;;;;;;5032257;28;20194;-81
2024/02/22 01:49:39;;;;;;;23.57;10.87;;;6.50;99.90;;;;;;5017783;28;20573;-81
2024/02/22 01:52:28;;;;;;;22.47;10.83;;;6.50;99.90;;;;;;5031744;28;20275;-80
2024/02/22 01:55:17;;;;;;;26.10;10.33;;;6.50;99.90;;;;;;5031680;28;20199;-81
2024/02/22 01:58:05;;;;;;;23.47;11.27;;;6.50;99.90;;;;;;5018285;28;20225;-80
2024/02/22 02:00:52;;;;;;;26.00;11.33;;;6.50;99.90;;;;;;5018091;28;20207;-81
2024/02/22 02:03:40;;;;;;;26.77;11.23;;;6.50;99.90;;;;;;5032210;28;20192;-80
2024/02/22 02:06:27;;;;;;;22.60;10.40;;;6.50;99.90;;;;;;5032149;28;20198;-81
2024/02/22 02:09:16;;;;;;;21.83;10.17;;;6.50;99.90;;;;;;5016932;28;20193;-81
2024/02/22 02:12:04;;;;;;;23.00;9.97;;;6.50;99.90;;;;;;5031529;28;20601;-80
2024/02/22 02:14:53;;;;;;;24.57;10.47;;;6.50;99.90;;;;;;5017554;28;20755;-81
2024/02/22 02:17:43;;;;;;;23.50;10.43;;;6.50;99.90;;;;;;5036114;28;20570;-81
2024/02/22 02:20:39;;;;;;;21.10;10.30;;;6.50;99.90;;;;;;5054468;28;20252;-82
2024/02/22 02:23:57;;;;;;;21.10;9.53;;;6.50;99.90;;;;;;5041461;28;20265;-82
2024/02/22 02:26:45;;;;;;;21.43;9.73;;;6.50;99.90;;;;;;5040956;28;20710;-81
2024/02/22 02:29:32;;;;;;;18.60;9.27;;;6.40;99.90;;;;;;5054316;28;20572;-82
2024/02/22 02:32:20;;;;;;;22.73;10.30;;;6.30;99.90;;;;;;5054585;28;20197;-82
2024/02/22 02:35:07;;;;;;;22.10;10.10;;;6.30;99.90;;;;;;5055297;28;20206;-82
2024/02/22 02:37:57;;;;;;;23.10;10.03;;;6.30;99.90;;;;;;5055082;28;20202;-82
2024/02/22 02:40:45;;;;;;;21.57;9.87;;;6.20;99.90;;;;;;5054653;28;20646;-82
2024/02/22 02:43:33;;;;;;;20.77;10.20;;;6.20;99.90;;;;;;5041579;28;20289;-80
2024/02/22 02:46:20;;;;;;;23.47;9.87;;;6.20;99.90;;;;;;5055332;28;20608;-81
2024/02/22 02:49:08;;;;;;;23.63;9.83;;;6.20;99.90;;;;;;5055025;28;20278;-82
2024/02/22 02:51:55;;;;;;;18.23;9.07;;;6.20;99.90;;;;;;5055590;28;20195;-82
2024/02/22 02:54:42;;;;;;;21.60;9.97;;;6.10;99.90;;;;;;5055267;28;20233;-81
2024/02/22 02:57:30;;;;;;;21.03;9.30;;;6.10;99.90;;;;;;5054864;28;20553;-83
2024/02/22 03:00:18;;;;;;;26.37;10.20;;;6.00;99.90;;;;;;5040513;28;20193;-82
2024/02/22 03:03:05;;;;;;;23.63;9.83;;;5.90;99.90;;;;;;5053889;28;20235;-83
2024/02/22 03:05:53;;;;;;;19.83;9.27;;;5.90;99.90;;;;;;5058383;28;20663;-82
2024/02/22 03:08:41;;;;;;;22.87;10.10;;;5.80;99.90;;;;;;5045833;28;20222;-82
2024/02/22 03:11:28;;;;;;;24.33;9.80;;;5.80;99.90;;;;;;5058971;28;20195;-82
2024/02/22 03:14:16;;;;;;;20.77;10.03;;;5.70;99.90;;;;;;5059035;28;20279;-81
2024/02/22 03:17:03;;;;;;;22.87;9.50;;;5.70;99.90;;;;;;5058160;28;20638;-80
2024/02/22 03:19:52;;;;;;;22.07;10.07;;;5.60;99.90;;;;;;5039901;28;20237;-82
2024/02/22 03:22:40;;;;;;;23.83;10.30;;;5.50;99.90;;;;;;5034007;28;20278;-82
2024/02/22 03:25:28;;;;;;;21.37;10.43;;;5.60;99.90;;;;;;5019417;28;20255;-82
2024/02/22 03:28:16;;;;;;;21.90;10.73;;;5.60;99.90;;;;;;5032827;28;20611;-82
2024/02/22 03:31:04;;;;;;;22.60;10.17;;;5.50;99.90;;;;;;5019354;28;20227;-80
2024/02/22 03:33:51;;;;;;;23.10;10.10;;;5.50;99.90;;;;;;5034619;28;20679;-82
2024/02/22 03:36:41;;;;;;;27.33;10.87;;;5.50;99.90;;;;;;5033265;28;20718;-82
2024/02/22 03:39:29;;;;;;;20.57;10.03;;;5.50;99.90;;;;;;5019232;28;20203;-82
2024/02/22 03:42:17;;;;;;;23.67;10.60;;;5.40;99.90;;;;;;5033783;28;20338;-82
2024/02/22 03:45:05;;;;;;;25.13;10.40;;;5.50;99.90;;;;;;5033368;28;20588;-82
2024/02/22 03:47:52;;;;;;;23.00;10.53;;;5.40;99.90;;;;;;5033327;28;20224;-81
2024/02/22 03:50:43;;;;;;;25.77;10.00;;;5.30;99.90;;;;;;5033300;28;20192;-81
2024/02/22 03:53:30;;;;;;;20.13;10.23;;;5.30;99.90;;;;;;5032262;28;20203;-82
2024/02/22 03:56:19;;;;;;;23.47;10.00;;;5.30;99.90;;;;;;5033576;28;20278;-82
2024/02/22 03:59:07;;;;;;;23.70;10.43;;;5.20;99.90;;;;;;5033511;28;20261;-82
2024/02/22 04:01:54;;;;;;;25.60;10.83;;;5.20;99.90;;;;;;5033544;28;20204;-82
2024/02/22 04:04:53;;;;;;;22.60;9.87;;;5.20;99.90;;;;;;5020021;28;20229;-82
2024/02/22 04:07:42;;;;;;;23.90;10.47;;;5.20;99.90;;;;;;5033134;28;20227;-81
2024/02/22 04:10:29;;;;;;;22.27;10.23;;;5.20;99.90;;;;;;5019232;28;20651;-82
2024/02/22 04:13:17;;;;;;;23.07;9.97;;;5.10;99.90;;;;;;5032763;28;20212;-82
2024/02/22 04:16:05;;;;;;;18.93;9.77;;;5.10;99.90;;;;;;5033186;28;20198;-81
2024/02/22 04:18:53;;;;;;;22.53;10.20;;;5.10;99.90;;;;;;5032977;28;20234;-81
2024/02/22 04:21:44;;;;;;;23.10;9.97;;;5.10;99.90;;;;;;5033047;28;20640;-81
2024/02/22 04:24:31;;;;;;;20.17;10.10;;;5.10;99.90;;;;;;5032622;28;20196;-80
2024/02/22 04:27:18;;;;;;;23.93;9.87;;;5.10;99.90;;;;;;5033340;28;20222;-81
2024/02/22 04:30:06;;;;;;;20.80;10.27;;;5.10;99.90;;;;;;5032906;28;20191;-82
2024/02/22 04:32:54;;;;;;;23.13;10.33;;;5.00;99.90;;;;;;5032563;28;20201;-81
2024/02/22 04:35:43;;;;;;;22.13;10.07;;;5.00;99.90;;;;;;5018739;28;20663;-82
2024/02/22 04:38:34;;;;;;;23.90;10.77;;;5.00;99.90;;;;;;5032177;28;20552;-81
2024/02/22 04:41:21;;;;;;;23.10;10.17;;;5.00;99.90;;;;;;5033262;28;20660;-81
2024/02/22 04:44:09;;;;;;;20.57;9.87;;;5.00;99.90;;;;;;5019347;28;20203;-81
2024/02/22 04:46:57;;;;;;;20.13;10.03;;;5.00;99.90;;;;;;5019077;28;20644;-80
2024/02/22 04:49:44;;;;;;;22.10;9.90;;;5.00;99.90;;;;;;5032586;28;20678;-80
2024/02/22 04:52:31;;;;;;;20.30;9.67;;;5.00;99.90;;;;;;5017890;28;20576;-81
2024/02/22 04:55:20;;;;;;;22.23;9.83;;;4.90;99.90;;;;;;5032469;28;20266;-81
2024/02/22 04:58:07;;;;;;;23.37;10.17;;;4.90;99.90;;;;;;5032990;28;20219;-81
2024/02/22 05:00:55;;;;;;;22.60;9.87;;;4.90;99.90;;;;;;5032402;28;20227;-82
2024/02/22 05:03:43;;;;;;;23.33;10.33;;;4.80;99.90;;;;;;5030180;28;20566;-81
2024/02/22 05:06:30;;;;;;;21.43;9.87;;;4.80;99.90;;;;;;5018274;28;20191;-81
2024/02/22 05:09:18;;;;;;;17.47;9.40;;;4.70;99.90;;;;;;4952214;29;20242;-81
2024/02/22 05:12:07;;;;;;;22.83;10.57;;;4.70;99.90;;;;;;4951848;28;20300;-81
2024/02/22 05:14:55;;;;;;;19.67;9.50;;;4.80;99.90;;;;;;4939123;29;20655;-81
2024/02/22 05:17:42;;;;;;;19.13;9.33;;;4.70;99.90;;;;;;4953278;28;20569;-82
2024/02/22 05:20:30;;;;;;;21.70;9.93;;;4.70;99.90;;;;;;4938836;29;20695;-80
2024/02/22 05:23:17;;;;;;;22.00;10.07;;;4.80;99.90;;;;;;4953289;28;20240;-81
2024/02/22 05:26:05;;;;;;;21.10;10.33;;;4.80;99.90;;;;;;4943294;28;20734;-81
2024/02/22 05:28:53;;;;;;;26.50;10.70;;;4.80;99.90;;;;;;5032022;28;20219;-81
2024/02/22 05:31:40;;;;;;;19.67;10.00;;;4.90;99.90;;;;;;5031444;28;20242;-81
2024/02/22 05:34:28;;;;;;;19.87;10.13;;;4.80;99.90;;;;;;5030803;28;20199;-81
2024/02/22 05:37:16;;;;;;;21.90;9.97;;;4.80;99.90;;;;;;5032345;28;20195;-81
2024/02/22 05:40:08;;;;;;;25.43;10.10;;;4.70;99.90;;;;;;5031800;28;20705;-81
2024/02/22 05:42:55;;;;;;;23.83;10.83;;;4.80;99.90;;;;;;5032215;28;20220;-81
2024/02/22 05:45:46;;;;;;;23.97;10.77;;;4.80;99.90;;;;;;5032166;28;20656;-81
2024/02/22 05:48:34;;;;;;;19.93;10.37;;;4.80;99.90;;;;;;5017819;28;20208;-81
2024/02/22 05:51:22;;;;;;;22.50;10.53;;;4.80;99.90;;;;;;5036071;28;20198;-81
2024/02/22 05:54:09;;;;;;;22.47;10.20;;;4.80;99.90;;;;;;5047144;28;20200;-81
2024/02/22 05:56:57;;;;;;;20.10;10.23;;;4.80;99.90;;;;;;5047537;28;20719;-81
2024/02/22 05:59:44;;;;;;;21.57;10.70;;;4.80;99.90;;;;;;5043539;28;20640;-81
2024/02/22 06:02:32;;;;;;;23.37;10.00;;;4.90;99.90;;;;;;5031862;28;20205;-81
2024/02/22 06:05:19;;;;;;;26.50;10.53;;;4.90;99.90;;;;;;5031552;28;20222;-82
2024/02/22 06:08:07;;;;;;;21.60;10.50;;;4.90;99.90;;;;;;5032225;28;20276;-81
2024/02/22 06:10:54;;;;;;;20.70;10.50;;;4.90;99.90;;;;;;5031280;28;20203;-80
2024/02/22 06:13:43;;;;;;;19.37;9.93;;;4.90;99.90;;;;;;5031037;28;20240;-82
2024/02/22 06:16:30;;;;;;;20.13;9.77;;;5.00;99.90;;;;;;5032153;28;20556;-82
2024/02/22 06:19:18;;;;;;;20.80;10.30;;;4.90;99.90;;;;;;5031184;28;20588;-81
2024/02/22 06:22:05;;;;;;;20.30;9.90;;;4.90;99.90;;;;;;5031974;28;20206;-81
2024/02/22 06:24:53;;;;;;;22.97;10.27;;;4.90;99.90;;;;;;5030333;28;20218;-82
2024/02/22 06:27:45;;;;;;;19.80;10.10;;;4.90;99.90;;;;;;5030603;28;20215;-82
2024/02/22 06:30:32;;;;;;;19.20;10.13;;;4.90;99.90;;;;;;5031430;28;20216;-81
2024/02/22 06:33:21;;;;;;;21.17;10.53;;;4.90;99.90;;;;;;5031198;28;20254;-82
2024/02/22 06:36:09;;;;;;;22.63;10.03;;;5.00;99.90;;;;;;5031666;28;20222;-82
2024/02/22 06:38:57;;;;;;;25.33;10.17;;;5.00;99.90;;;;;;5029646;28;20222;-81
2024/02/22 06:41:45;;;;;;;19.57;10.23;;;5.00;99.90;;;;;;5030237;28;20703;-80
2024/02/22 06:44:32;;;;;;;23.37;9.93;;;5.00;99.90;;;;;;5031368;28;20283;-80
2024/02/22 06:47:20;;;;;;;19.10;9.77;;;5.10;99.90;;;;;;5031742;28;20222;-82
2024/02/22 06:50:07;;;;;;;19.63;9.97;;;5.10;99.90;;;;;;5031219;28;20224;-81
2024/02/22 06:52:55;;;;;;;36.43;11.87;;;5.20;99.90;;;;;;5031044;28;20193;-82
2024/02/22 06:55:43;;;;;;;20.83;9.90;;;5.30;99.90;;;;;;5030882;28;20203;-81
2024/02/22 06:58:30;;;;;;;16.53;8.90;;;5.30;99.90;;;;;;5016970;28;20233;-82
2024/02/22 07:01:18;;;;;;;17.20;8.53;;;5.40;99.90;;;;;;5031394;28;20189;-82
2024/02/22 07:04:08;;;;;;;15.93;8.50;;;5.50;99.90;;;;;;5034402;28;20191;-81
2024/02/22 07:06:57;;;;;;;22.20;8.83;;;5.50;99.90;;;;;;5034981;28;20199;-81
2024/02/22 07:09:44;;;;;;;19.23;8.53;;;5.60;99.90;;;;;;5032368;28;20719;-81
2024/02/22 07:12:32;;;;;;;17.00;8.10;;;5.60;99.90;;;;;;5020228;28;20222;-80
2024/02/22 07:15:20;;;;;;;18.50;8.17;;;5.70;99.90;;;;;;5034341;28;20189;-82
2024/02/22 07:18:07;;;;;;;16.47;8.13;;;5.80;99.90;;;;;;5034273;28;20198;-81
2024/02/22 07:20:57;;;;;;;15.93;7.63;;;5.80;99.90;;;;;;5053674;28;20298;-82
2024/02/22 07:23:45;;;;;;;15.67;7.07;;;6.00;99.90;;;;;;5040446;28;20192;-81
2024/02/22 07:26:33;;;;;;;14.43;7.33;;;6.00;99.90;;;;;;5039998;28;20314;-81
2024/02/22 07:29:21;;;;;;;16.13;7.10;;;6.00;99.90;;;;;;5053738;28;20379;-81
2024/02/22 07:32:08;;;;;;;14.97;6.87;;;6.10;99.90;;;;;;5053273;28;20205;-81
2024/02/22 07:34:56;;;;;;;11.80;6.40;;;6.10;99.90;;;;;;5054965;28;20212;-82
2024/02/22 07:37:43;;;;;;;14.57;6.70;;;6.20;99.90;;;;;;5039663;28;20205;-82
2024/02/22 07:40:31;;;;;;;13.27;6.53;;;6.30;99.90;;;;;;5053776;28;20203;-82
2024/02/22 07:43:19;;;;;;;13.47;6.33;;;6.30;99.90;;;;;;5040139;28;20297;-81
2024/02/22 07:46:06;;;;;;;11.73;6.23;;;6.50;99.90;;;;;;5054481;28;20568;-81
2024/02/22 07:48:55;;;;;;;15.43;6.37;;;6.60;99.90;;;;;;5053580;28;20233;-82
2024/02/22 07:51:43;;;;;;;13.63;6.30;;;6.60;99.90;;;;;;5039043;28;20327;-82
2024/02/22 07:54:47;;;;;;;12.13;6.27;;;6.60;99.90;;;;;;5054018;28;20198;-81
2024/02/22 07:57:35;;;;;;;14.17;6.13;;;6.70;99.90;;;;;;5053300;28;20589;-81
2024/02/22 08:00:23;;;;;;;13.40;6.67;;;6.80;99.90;;;;;;5054576;28;20289;-82
2024/02/22 08:03:11;;;;;;;11.47;6.07;;;6.80;99.90;;;;;;5039803;28;20287;-82
2024/02/22 08:06:00;;;;;;;13.00;5.60;;;6.90;99.90;;;;;;5052635;28;20245;-81
2024/02/22 08:08:48;;;;;;;11.50;5.47;;;7.00;99.90;;;;;;5056223;28;20235;-82
2024/02/22 08:11:35;;;;;;;11.83;5.53;;;7.20;99.90;;;;;;5052908;28;20193;-82
2024/02/22 08:14:23;;;;;;;12.93;5.70;;;7.20;99.90;;;;;;5053093;28;20191;-82
2024/02/22 08:17:16;;;;;;;10.20;5.60;;;7.40;99.90;;;;;;5052394;28;20238;-79
2024/02/22 08:20:06;;;;;;;11.60;5.50;;;7.60;99.90;;;;;;5037417;28;20237;-82
2024/02/22 08:22:55;;;;;;;11.97;5.77;;;7.90;99.90;;;;;;5019928;28;20229;-86
2024/02/22 08:25:43;;;;;;;9.90;5.07;;;8.00;99.90;;;;;;5034343;28;20202;-86
2024/02/22 08:28:32;;;;;;;11.10;5.47;;;8.10;99.90;;;;;;5033248;28;20229;-86
2024/02/22 08:31:21;;;;;;;11.03;5.57;;;8.50;99.90;;;;;;5032814;28;20204;-82
2024/02/22 08:34:12;;;;;;;9.23;5.03;;;8.80;99.90;;;;;;5033706;28;20199;-77
2024/02/22 08:37:00;;;;;;;11.70;5.03;;;8.80;99.90;;;;;;5032868;28;20677;-79
2024/02/22 08:39:48;;;;;;;9.93;5.33;;;8.90;99.90;;;;;;5032131;28;20207;-83
2024/02/22 08:42:36;;;;;;;9.47;5.50;;;8.90;99.90;;;;;;5019264;28;20222;-83
2024/02/22 08:45:24;;;;;;;11.60;5.70;;;9.20;99.90;;;;;;5032374;28;20640;-82
2024/02/22 08:48:14;;;;;;;8.60;4.77;;;9.20;99.90;;;;;;5032070;28;20191;-79
2024/02/22 08:51:03;;;;;;;11.93;4.97;;;9.20;99.90;;;;;;5032508;28;20289;-80
2024/02/22 08:53:50;;;;;;;11.80;5.03;;;9.10;99.90;;;;;;5031957;28;20517;-81
2024/02/22 08:56:38;;;;;;;11.60;5.10;;;9.10;99.90;;;;;;5032898;28;20239;-82
2024/02/22 08:59:25;;;;;;;10.27;5.17;;;9.30;99.90;;;;;;5032371;28;20203;-81
2024/02/22 09:02:14;;;;;;;8.07;4.70;;;9.30;99.90;;;;;;5032287;28;20198;-79
2024/02/22 09:05:01;;;;;;;10.27;4.73;;;9.50;99.90;;;;;;5032809;28;20230;-79
2024/02/22 09:07:50;;;;;;;11.07;5.17;;;9.60;99.90;;;;;;5030318;28;20196;-79
2024/02/22 09:10:39;;;;;;;9.03;4.80;;;9.70;99.90;;;;;;5031594;28;20694;-80
2024/02/22 09:13:26;;;;;;;10.37;5.17;;;9.70;99.90;;;;;;5033173;28;20215;-78
2024/02/22 09:16:14;;;;;;;13.53;4.97;;;10.00;99.90;;;;;;5032154;28;20195;-79
2024/02/22 09:19:01;;;;;;;8.83;5.10;;;10.20;99.90;;;;;;5032029;28;20281;-80
2024/02/22 09:21:50;;;;;;;9.83;4.97;;;10.60;99.90;;;;;;5031783;28;20585;-79
2024/02/22 09:24:42;;;;;;;8.00;4.50;;;10.90;99.90;;;;;;5031680;28;20198;-80
2024/02/22 09:27:30;;;;;;;12.60;4.73;;;11.10;99.90;;;;;;5031771;28;20207;-82
2024/02/22 09:30:18;;;;;;;11.43;5.33;;;10.80;99.90;;;;;;5030783;28;20223;-79
2024/02/22 09:33:07;;;;;;;8.40;4.40;;;10.80;99.90;;;;;;5017362;28;20207;-82
2024/02/22 09:35:56;;;;;;;8.67;4.63;;;10.80;99.90;;;;;;5031677;28;20195;-80
2024/02/22 09:38:43;;;;;;;10.80;4.90;;;10.80;99.90;;;;;;5017212;28;20289;-80
2024/02/22 09:41:31;;;;;;;9.87;4.70;;;10.70;99.90;;;;;;5031070;28;20199;-82
2024/02/22 09:44:19;;;;;;;8.20;4.53;;;10.50;99.90;;;;;;5017763;28;20202;-84
2024/02/22 09:47:08;;;;;;;10.63;4.83;;;10.50;99.90;;;;;;5018415;28;20280;-84
2024/02/22 09:49:57;;;;;;;10.37;4.70;;;10.40;99.90;;;;;;5031464;28;20215;-84
2024/02/22 09:52:46;;;;;;;10.17;4.50;;;10.30;99.90;;;;;;5031633;28;20674;-79
2024/02/22 09:55:34;;;;;;;11.07;5.00;;;10.30;99.90;;;;;;5032235;28;20283;-84
2024/02/22 09:58:23;;;;;;;8.87;4.60;;;10.30;99.90;;;;;;5016582;28;20223;-83
2024/02/22 10:01:11;;;;;;;13.93;5.10;;;10.30;99.90;;;;;;5031532;28;20245;-78
2024/02/22 10:04:12;;;;;;;8.70;4.37;;;10.40;99.90;;;;;;5031121;28;20207;-79
2024/02/22 10:07:00;;;;;;;10.00;4.50;;;10.40;99.90;;;;;;5016403;28;20679;-80
2024/02/22 10:09:52;;;;;;;7.80;4.30;;;10.50;99.90;;;;;;5016833;28;20226;-84
2024/02/22 10:12:43;;;;;;;8.87;4.20;;;10.20;99.90;;;;;;5031445;28;20665;-86
2024/02/22 10:15:33;;;;;;;8.07;4.10;;;10.20;99.90;;;;;;5031716;28;20249;-87
2024/02/22 10:18:25;;;;;;;8.83;4.10;;;10.20;99.90;;;;;;5030676;28;20672;-78
2024/02/22 10:21:17;;;;;;;8.00;4.23;;;10.10;99.90;;;;;;5030084;28;20219;-80
2024/02/22 10:24:06;;;;;;;10.27;4.40;;;10.10;99.90;;;;;;5031392;28;20578;-82
2024/02/22 10:27:04;;;;;;;11.03;4.70;;;10.10;99.90;;;;;;5030090;28;20611;-82
2024/02/22 10:29:55;;;;;;;10.93;4.63;;;10.00;99.90;;;;;;5031052;28;20231;-83
2024/02/22 10:32:45;;;;;;;10.27;4.40;;;9.90;99.90;;;;;;5031852;28;20192;-84
2024/02/22 10:35:34;;;;;;;8.10;4.03;;;9.90;99.90;;;;;;5030760;28;20199;-82
2024/02/22 10:38:22;;;;;;;9.20;4.60;;;10.00;99.90;;;;;;5034372;28;20564;-79
2024/02/22 10:41:10;;;;;;;9.63;4.40;;;10.00;99.90;;;;;;5035123;28;20556;-79
2024/02/22 10:44:01;;;;;;;7.90;4.17;;;10.00;99.90;;;;;;5032830;28;20192;-81
2024/02/22 10:46:51;;;;;;;8.43;4.60;;;10.00;99.90;;;;;;5033956;28;20240;-81
2024/02/22 10:49:39;;;;;;;9.87;4.53;;;10.00;99.90;;;;;;5035935;28;20564;-81
2024/02/22 10:52:26;;;;;;;11.13;4.57;;;10.10;99.90;;;;;;5034794;28;20199;-80
2024/02/22 10:55:15;;;;;;;8.77;4.40;;;10.10;99.90;;;;;;5034876;28;20198;-80
2024/02/22 10:58:05;;;;;;;8.33;3.97;;;10.10;99.90;;;;;;5020120;28;20320;-81
2024/02/22 11:00:55;;;;;;;10.20;4.20;;;10.10;99.90;;;;;;5021444;28;20634;-81
2024/02/22 11:03:44;;;;;;;7.80;4.10;;;10.10;99.90;;;;;;5034869;28;20195;-81
2024/02/22 11:06:39;;;;;;;8.13;4.13;;;10.10;99.90;;;;;;5033634;28;20564;-79
2024/02/22 11:09:26;;;;;;;7.73;3.67;;;10.20;99.90;;;;;;5033932;28;20215;-81
2024/02/22 11:12:15;;;;;;;7.53;4.03;;;10.10;99.90;;;;;;5033822;28;20277;-83
2024/02/22 11:15:07;;;;;;;7.63;3.80;;;10.10;99.90;;;;;;5020326;28;20564;-79
2024/02/22 11:17:57;;;;;;;9.37;3.90;;;10.20;99.90;;;;;;5033762;28;20215;-79
2024/02/22 11:20:45;;;;;;;8.97;4.10;;;10.20;99.90;;;;;;5033159;28;20652;-86
2024/02/22 11:23:34;;;;;;;9.70;4.17;;;10.10;99.90;;;;;;5032981;28;20278;-84
2024/02/22 11:26:22;;;;;;;8.73;4.00;;;10.00;99.90;;;;;;5034106;28;20337;-84
2024/02/22 11:29:09;;;;;;;8.80;4.50;;;10.10;99.90;;;;;;5032392;28;20482;-77
2024/02/22 11:32:04;;;;;;;7.43;4.40;;;10.10;99.90;;;;;;5034172;28;20206;-81
2024/02/22 11:34:56;;;;;;;7.50;4.13;;;10.10;99.90;;;;;;5033526;28;20184;-80
2024/02/22 11:37:47;;;;;;;8.83;4.10;;;10.00;99.90;;;;;;5034082;28;20214;-84
2024/02/22 11:40:35;;;;;;;9.67;4.47;;;10.10;99.90;;;;;;5032680;28;20769;-84
2024/02/22 11:43:26;;;;;;;11.47;5.70;;;10.10;99.90;;;;;;5033695;28;20219;-84
2024/02/22 11:46:13;;;;;;;9.10;4.70;;;10.00;99.90;;;;;;5032709;28;20199;-78
2024/02/22 11:49:01;;;;;;;8.60;3.90;;;10.00;99.90;;;;;;5032707;28;20656;-85
2024/02/22 11:51:49;;;;;;;9.23;4.30;;;10.00;99.90;;;;;;5045820;28;20203;-85
2024/02/22 11:54:38;;;;;;;7.83;4.40;;;10.10;99.90;;;;;;5032498;28;20195;-85
2024/02/22 11:57:25;;;;;;;11.03;4.43;;;10.20;99.90;;;;;;5032651;28;20350;-85
2024/02/22 12:00:14;;;;;;;6.67;4.00;;;10.20;99.90;;;;;;5032755;28;20196;-85
2024/02/22 12:03:02;;;;;;;7.73;3.80;;;10.30;99.90;;;;;;5032904;28;20305;-85
2024/02/22 12:05:50;;;;;;;7.83;3.90;;;10.30;99.90;;;;;;5032148;28;20198;-86
2024/02/22 12:08:38;;;;;;;6.03;3.80;;;10.20;99.90;;;;;;5033312;28;20203;-86
2024/02/22 12:11:26;;;;;;;6.77;3.80;;;10.20;99.90;;;;;;5032589;28;20691;-85
2024/02/22 12:14:14;;;;;;;8.43;3.87;;;10.20;99.90;;;;;;5033835;28;20804;-85
2024/02/22 12:17:01;;;;;;;8.67;4.33;;;10.30;99.90;;;;;;5032013;28;20682;-81
2024/02/22 12:19:53;;;;;;;8.97;4.00;;;10.20;99.90;;;;;;5031562;28;20382;-82
2024/02/22 12:22:45;;;;;;;8.43;3.83;;;10.30;99.90;;;;;;5033597;28;20205;-77
2024/02/22 12:25:39;;;;;;;6.47;3.90;;;10.30;99.90;;;;;;5032094;28;20207;-83
2024/02/22 12:28:27;;;;;;;7.17;3.77;;;10.40;99.90;;;;;;5031882;28;20231;-83
2024/02/22 12:31:18;;;;;;;7.90;4.40;;;10.50;99.90;;;;;;5032339;28;20273;-83
2024/02/22 12:34:06;;;;;;;6.97;3.77;;;10.60;99.90;;;;;;5019660;28;20203;-83
2024/02/22 12:36:54;;;;;;;8.87;3.97;;;10.50;99.90;;;;;;5032826;28;20205;-76
2024/02/22 12:39:41;;;;;;;7.30;4.17;;;10.60;99.90;;;;;;5019794;28;20199;-77
2024/02/22 12:42:29;;;;;;;6.43;3.97;;;10.60;99.90;;;;;;5031952;28;20588;-85
2024/02/22 12:45:17;;;;;;;7.73;3.93;;;10.60;99.90;;;;;;5032712;28;20786;-79
2024/02/22 12:48:12;;;;;;;10.70;4.17;;;10.60;99.90;;;;;;5032335;28;20583;-83
2024/02/22 12:51:00;;;;;;;7.70;3.90;;;10.60;99.90;;;;;;5032356;28;20215;-75
2024/02/22 12:53:48;;;;;;;6.63;4.00;;;10.50;99.90;;;;;;5032082;28;20215;-77
2024/02/22 12:56:36;;;;;;;7.47;3.97;;;10.50;99.90;;;;;;5032366;28;20577;-76
2024/02/22 12:59:28;;;;;;;8.57;4.00;;;10.50;99.90;;;;;;5032875;28;20715;-78
2024/02/22 13:02:16;;;;;;;9.27;4.30;;;10.40;99.90;;;;;;5031897;28;20235;-76
2024/02/22 13:05:04;;;;;;;9.07;3.80;;;10.20;99.90;;;;;;5032441;28;20652;-82
2024/02/22 13:07:55;;;;;;;7.47;4.20;;;10.10;99.90;;;;;;5018270;28;20202;-82
2024/02/22 13:10:44;;;;;;;7.87;3.87;;;9.90;99.90;;;;;;5031681;28;20320;-81
2024/02/22 13:13:32;;;;;;;9.23;4.23;;;9.80;99.90;;;;;;5034226;28;20215;-85
2024/02/22 13:16:23;;;;;;;7.83;4.37;;;9.70;99.90;;;;;;5018694;28;20280;-75
2024/02/22 13:19:11;;;;;;;9.17;4.40;;;9.70;99.90;;;;;;5032514;28;20317;-77
2024/02/22 13:21:59;;;;;;;7.43;4.27;;;9.60;99.90;;;;;;5032719;28;20261;-77
2024/02/22 13:24:47;;;;;;;8.13;4.30;;;9.60;99.90;;;;;;5033180;28;20647;-78
2024/02/22 13:27:35;;;;;;;8.27;4.90;;;9.50;99.90;;;;;;5032496;28;20226;-78
2024/02/22 13:30:24;;;;;;;11.13;4.67;;;9.60;99.90;;;;;;5031783;28;20262;-76
2024/02/22 13:33:14;;;;;;;9.17;4.50;;;9.60;99.90;;;;;;5031388;28;20606;-84
2024/02/22 13:36:03;;;;;;;8.63;4.60;;;9.70;99.90;;;;;;5031249;28;20281;-84
2024/02/22 13:38:50;;;;;;;8.03;4.33;;;9.70;99.90;;;;;;5031278;28;20274;-84
2024/02/22 13:41:38;;;;;;;8.67;4.70;;;9.70;99.90;;;;;;5031269;28;20215;-84
2024/02/22 13:44:28;;;;;;;7.57;4.53;;;9.70;99.90;;;;;;5018412;28;20289;-84
2024/02/22 13:47:17;;;;;;;6.73;4.60;;;9.80;99.90;;;;;;5017349;28;20694;-82
2024/02/22 13:50:06;;;;;;;8.17;4.33;;;9.80;99.90;;;;;;5031016;28;20308;-82
2024/02/22 13:52:53;;;;;;;10.00;4.70;;;9.80;99.90;;;;;;5018672;28;20205;-83
2024/02/22 13:55:41;;;;;;;8.53;4.37;;;9.80;99.90;;;;;;5031561;28;20781;-81
2024/02/22 13:58:32;;;;;;;8.13;4.53;;;9.80;99.90;;;;;;5031487;28;20283;-80
2024/02/22 14:01:19;;;;;;;7.03;4.33;;;9.90;99.90;;;;;;5030895;28;20241;-82
2024/02/22 14:04:07;;;;;;;8.10;4.50;;;9.90;99.90;;;;;;5031029;28;20199;-78
2024/02/22 14:06:56;;;;;;;9.80;4.87;;;9.90;99.90;;;;;;5032081;28;20203;-85
2024/02/22 14:09:44;;;;;;;6.97;4.43;;;9.90;99.90;;;;;;5034687;28;20203;-85
2024/02/22 14:12:32;;;;;;;7.00;4.40;;;9.90;99.90;;;;;;5037295;28;20267;-86
2024/02/22 14:15:20;;;;;;;8.80;4.60;;;9.80;99.90;;;;;;5034259;28;20198;-85
2024/02/22 14:18:07;;;;;;;9.10;4.77;;;9.80;99.90;;;;;;5021786;28;20195;-78
2024/02/22 14:20:55;;;;;;;10.87;5.60;;;9.80;99.90;;;;;;5034764;28;20781;-82
2024/02/22 14:23:43;;;;;;;8.53;4.53;;;9.70;99.90;;;;;;5034432;28;20198;-78
2024/02/22 14:26:30;;;;;;;8.97;5.27;;;9.80;99.90;;;;;;5034725;28;20205;-78
2024/02/22 14:29:19;;;;;;;9.33;5.40;;;9.70;99.90;;;;;;5034599;28;20564;-83
2024/02/22 14:32:10;;;;;;;9.13;5.40;;;9.70;99.90;;;;;;5035053;28;20279;-83